sensor_id;sensor_type;location;lat;lon;timestamp;temperature;humidity
11005;DHT22;5555;59.622;16.556;2022-09-17T00:02:21;9.90;99.90
11005;DHT22;5555;59.622;16.556;2022-09-17T00:04:50;9.90;99.90
11005;DHT22;5555;59.622;16.556;2022-09-17T00:07:16;9.90;99.90
11005;DHT22;5555;59.622;16.556;2022-09-17T00:09:42;9.80;99.90
11005;DHT22;5555;59.622;16.556;2022-09-17T00:12:08;9.80;99.90
11005;DHT22;5555;59.622;16.556;2022-09-17T00:14:34;9.80;99.90
11005;DHT22;5555;59.622;16.556;2022-09-17T00:17:00;9.70;99.90
11005;DHT22;5555;59.622;16.556;2022-09-17T00:19:25;9.70;99.90
11005;DHT22;5555;59.622;16.556;2022-09-17T00:21:51;9.70;99.90
11005;DHT22;5555;59.622;16.556;2022-09-17T00:24:18;9.70;99.90
11005;DHT22;5555;59.622;16.556;2022-09-17T00:26:44;9.70;99.90
11005;DHT22;5555;59.622;16.556;2022-09-17T00:29:10;9.80;99.90
11005;DHT22;5555;59.622;16.556;2022-09-17T00:31:36;9.80;99.90
11005;DHT22;5555;59.622;16.556;2022-09-17T00:34:04;9.80;99.90
11005;DHT22;5555;59.622;16.556;2022-09-17T00:36:30;9.80;99.90
11005;DHT22;5555;59.622;16.556;2022-09-17T00:38:58;9.80;99.90
11005;DHT22;5555;59.622;16.556;2022-09-17T00:41:27;9.80;99.90
11005;DHT22;5555;59.622;16.556;2022-09-17T00:43:55;9.90;99.90
11005;DHT22;5555;59.622;16.556;2022-09-17T00:48:47;9.90;99.90
11005;DHT22;5555;59.622;16.556;2022-09-17T00:51:17;9.90;99.90
11005;DHT22;5555;59.622;16.556;2022-09-17T00:53:44;9.90;99.90
11005;DHT22;5555;59.622;16.556;2022-09-17T00:56:27;10.00;99.90
11005;DHT22;5555;59.622;16.556;2022-09-17T00:58:54;10.00;99.90
11005;DHT22;5555;59.622;16.556;2022-09-17T01:01:20;10.10;99.90
11005;DHT22;5555;59.622;16.556;2022-09-17T01:03:46;10.00;99.90
11005;DHT22;5555;59.622;16.556;2022-09-17T01:14:54;10.20;99.90
11005;DHT22;5555;59.622;16.556;2022-09-17T01:17:42;10.20;99.90
11005;DHT22;5555;59.622;16.556;2022-09-17T01:28:31;10.20;99.90
11005;DHT22;5555;59.622;16.556;2022-09-17T01:31:02;10.20;99.90
11005;DHT22;5555;59.622;16.556;2022-09-17T01:39:07;10.20;99.90
11005;DHT22;5555;59.622;16.556;2022-09-17T01:41:45;10.20;99.90
11005;DHT22;5555;59.622;16.556;2022-09-17T01:47:56;10.00;99.90
11005;DHT22;5555;59.622;16.556;2022-09-17T01:50:23;10.10;99.90
11005;DHT22;5555;59.622;16.556;2022-09-17T01:52:52;10.00;99.90
11005;DHT22;5555;59.622;16.556;2022-09-17T01:55:20;10.00;99.90
11005;DHT22;5555;59.622;16.556;2022-09-17T02:00:38;10.00;99.90
11005;DHT22;5555;59.622;16.556;2022-09-17T02:03:21;10.00;99.90
11005;DHT22;5555;59.622;16.556;2022-09-17T02:06:00;10.00;99.90
11005;DHT22;5555;59.622;16.556;2022-09-17T02:08:44;9.90;99.90
11005;DHT22;5555;59.622;16.556;2022-09-17T02:11:13;10.00;99.90
11005;DHT22;5555;59.622;16.556;2022-09-17T02:14:01;10.00;99.90
11005;DHT22;5555;59.622;16.556;2022-09-17T02:16:29;9.90;99.90
11005;DHT22;5555;59.622;16.556;2022-09-17T02:19:17;10.00;99.90
11005;DHT22;5555;59.622;16.556;2022-09-17T02:22:19;10.00;99.90
11005;DHT22;5555;59.622;16.556;2022-09-17T02:27:41;9.90;99.90
11005;DHT22;5555;59.622;16.556;2022-09-17T02:30:11;9.90;99.90
11005;DHT22;5555;59.622;16.556;2022-09-17T02:32:37;9.90;99.90
11005;DHT22;5555;59.622;16.556;2022-09-17T02:35:03;9.90;99.90
11005;DHT22;5555;59.622;16.556;2022-09-17T02:37:29;9.90;99.90
11005;DHT22;5555;59.622;16.556;2022-09-17T02:39:55;9.90;99.90
11005;DHT22;5555;59.622;16.556;2022-09-17T02:42:22;9.90;99.90
11005;DHT22;5555;59.622;16.556;2022-09-17T03:01:19;9.80;99.90
11005;DHT22;5555;59.622;16.556;2022-09-17T03:03:48;9.80;99.90
11005;DHT22;5555;59.622;16.556;2022-09-17T03:06:16;9.70;99.90
11005;DHT22;5555;59.622;16.556;2022-09-17T03:08:42;9.70;99.90
11005;DHT22;5555;59.622;16.556;2022-09-17T03:11:10;9.70;99.90
11005;DHT22;5555;59.622;16.556;2022-09-17T03:13:37;9.70;99.90
11005;DHT22;5555;59.622;16.556;2022-09-17T03:16:04;9.60;99.90
11005;DHT22;5555;59.622;16.556;2022-09-17T03:18:30;9.60;99.90
11005;DHT22;5555;59.622;16.556;2022-09-17T03:20:56;9.60;99.90
11005;DHT22;5555;59.622;16.556;2022-09-17T03:23:21;9.60;99.90
11005;DHT22;5555;59.622;16.556;2022-09-17T03:25:47;9.60;99.90
11005;DHT22;5555;59.622;16.556;2022-09-17T03:28:15;9.60;99.90
11005;DHT22;5555;59.622;16.556;2022-09-17T03:30:44;9.60;99.90
11005;DHT22;5555;59.622;16.556;2022-09-17T03:33:10;9.60;99.90
11005;DHT22;5555;59.622;16.556;2022-09-17T03:35:36;9.60;99.90
11005;DHT22;5555;59.622;16.556;2022-09-17T03:38:02;9.60;99.90
11005;DHT22;5555;59.622;16.556;2022-09-17T03:40:28;9.60;99.90
11005;DHT22;5555;59.622;16.556;2022-09-17T03:42:54;9.60;99.90
11005;DHT22;5555;59.622;16.556;2022-09-17T03:45:19;9.50;99.90
11005;DHT22;5555;59.622;16.556;2022-09-17T03:47:45;9.50;99.90
11005;DHT22;5555;59.622;16.556;2022-09-17T03:50:11;9.50;99.90
11005;DHT22;5555;59.622;16.556;2022-09-17T03:52:36;9.40;99.90
11005;DHT22;5555;59.622;16.556;2022-09-17T03:55:03;9.40;99.90
11005;DHT22;5555;59.622;16.556;2022-09-17T03:57:28;9.40;99.90
11005;DHT22;5555;59.622;16.556;2022-09-17T03:59:54;9.40;99.90
11005;DHT22;5555;59.622;16.556;2022-09-17T04:02:20;9.40;99.90
11005;DHT22;5555;59.622;16.556;2022-09-17T04:04:45;9.40;99.90
11005;DHT22;5555;59.622;16.556;2022-09-17T04:07:11;9.40;99.90
11005;DHT22;5555;59.622;16.556;2022-09-17T04:09:36;9.40;99.90
11005;DHT22;5555;59.622;16.556;2022-09-17T04:12:02;9.40;99.90
11005;DHT22;5555;59.622;16.556;2022-09-17T04:14:28;9.40;99.90
11005;DHT22;5555;59.622;16.556;2022-09-17T04:16:54;9.40;99.90
11005;DHT22;5555;59.622;16.556;2022-09-17T04:19:19;9.40;99.90
11005;DHT22;5555;59.622;16.556;2022-09-17T04:21:45;9.50;99.90
11005;DHT22;5555;59.622;16.556;2022-09-17T04:24:10;9.50;99.90
11005;DHT22;5555;59.622;16.556;2022-09-17T04:26:36;9.50;99.90
11005;DHT22;5555;59.622;16.556;2022-09-17T04:29:02;9.50;99.90
11005;DHT22;5555;59.622;16.556;2022-09-17T04:31:27;9.60;99.90
11005;DHT22;5555;59.622;16.556;2022-09-17T04:33:53;9.60;99.90
11005;DHT22;5555;59.622;16.556;2022-09-17T04:36:19;9.60;99.90
11005;DHT22;5555;59.622;16.556;2022-09-17T04:38:47;9.60;99.90
11005;DHT22;5555;59.622;16.556;2022-09-17T04:41:13;9.60;99.90
11005;DHT22;5555;59.622;16.556;2022-09-17T04:43:38;9.60;99.90
11005;DHT22;5555;59.622;16.556;2022-09-17T04:46:05;9.70;99.90
11005;DHT22;5555;59.622;16.556;2022-09-17T04:48:31;9.70;99.90
11005;DHT22;5555;59.622;16.556;2022-09-17T04:50:56;9.70;99.90
11005;DHT22;5555;59.622;16.556;2022-09-17T04:53:22;9.70;99.90
11005;DHT22;5555;59.622;16.556;2022-09-17T04:55:48;9.70;99.90
11005;DHT22;5555;59.622;16.556;2022-09-17T04:58:14;9.70;99.90
11005;DHT22;5555;59.622;16.556;2022-09-17T05:00:39;9.70;99.90
11005;DHT22;5555;59.622;16.556;2022-09-17T05:03:07;9.60;99.90
11005;DHT22;5555;59.622;16.556;2022-09-17T05:05:32;9.70;99.90
11005;DHT22;5555;59.622;16.556;2022-09-17T05:07:58;9.70;99.90
11005;DHT22;5555;59.622;16.556;2022-09-17T05:10:24;9.70;99.90
11005;DHT22;5555;59.622;16.556;2022-09-17T05:12:55;9.80;99.90
11005;DHT22;5555;59.622;16.556;2022-09-17T05:15:21;9.80;99.90
11005;DHT22;5555;59.622;16.556;2022-09-17T05:17:47;9.90;99.90
11005;DHT22;5555;59.622;16.556;2022-09-17T05:20:14;10.00;99.90
11005;DHT22;5555;59.622;16.556;2022-09-17T05:22:44;10.10;99.90
11005;DHT22;5555;59.622;16.556;2022-09-17T05:25:11;10.10;99.90
11005;DHT22;5555;59.622;16.556;2022-09-17T05:27:38;10.20;99.90
11005;DHT22;5555;59.622;16.556;2022-09-17T05:30:04;10.30;99.90
11005;DHT22;5555;59.622;16.556;2022-09-17T05:32:30;10.40;99.90
11005;DHT22;5555;59.622;16.556;2022-09-17T05:34:56;10.40;99.90
11005;DHT22;5555;59.622;16.556;2022-09-17T05:37:21;10.50;99.90
11005;DHT22;5555;59.622;16.556;2022-09-17T05:39:47;10.60;99.90
11005;DHT22;5555;59.622;16.556;2022-09-17T05:42:12;10.60;99.90
11005;DHT22;5555;59.622;16.556;2022-09-17T05:44:38;10.70;99.90
11005;DHT22;5555;59.622;16.556;2022-09-17T05:47:04;10.80;99.90
11005;DHT22;5555;59.622;16.556;2022-09-17T05:49:29;10.90;99.90
11005;DHT22;5555;59.622;16.556;2022-09-17T05:51:55;10.90;99.90
11005;DHT22;5555;59.622;16.556;2022-09-17T05:54:21;10.90;99.90
11005;DHT22;5555;59.622;16.556;2022-09-17T05:56:46;11.00;99.90
11005;DHT22;5555;59.622;16.556;2022-09-17T05:59:12;11.10;99.90
11005;DHT22;5555;59.622;16.556;2022-09-17T06:01:39;11.10;99.90
11005;DHT22;5555;59.622;16.556;2022-09-17T06:04:05;11.30;99.90
11005;DHT22;5555;59.622;16.556;2022-09-17T06:06:31;11.40;99.90
11005;DHT22;5555;59.622;16.556;2022-09-17T06:09:00;11.50;99.90
11005;DHT22;5555;59.622;16.556;2022-09-17T06:11:26;11.60;99.90
11005;DHT22;5555;59.622;16.556;2022-09-17T06:13:54;11.70;99.90
11005;DHT22;5555;59.622;16.556;2022-09-17T06:16:21;11.70;99.90
11005;DHT22;5555;59.622;16.556;2022-09-17T06:18:47;11.80;99.90
11005;DHT22;5555;59.622;16.556;2022-09-17T06:21:14;11.80;99.90
11005;DHT22;5555;59.622;16.556;2022-09-17T06:23:41;11.80;99.90
11005;DHT22;5555;59.622;16.556;2022-09-17T06:26:08;11.80;99.90
11005;DHT22;5555;59.622;16.556;2022-09-17T06:28:34;11.80;99.90
11005;DHT22;5555;59.622;16.556;2022-09-17T06:31:05;11.80;99.90
11005;DHT22;5555;59.622;16.556;2022-09-17T06:33:31;11.80;99.90
11005;DHT22;5555;59.622;16.556;2022-09-17T06:36:02;11.80;99.90
11005;DHT22;5555;59.622;16.556;2022-09-17T06:38:30;11.90;99.90
11005;DHT22;5555;59.622;16.556;2022-09-17T06:40:56;11.90;99.90
11005;DHT22;5555;59.622;16.556;2022-09-17T06:43:22;12.00;99.90
11005;DHT22;5555;59.622;16.556;2022-09-17T06:45:56;12.00;99.90
11005;DHT22;5555;59.622;16.556;2022-09-17T06:48:22;12.10;99.90
11005;DHT22;5555;59.622;16.556;2022-09-17T06:50:49;12.10;99.90
11005;DHT22;5555;59.622;16.556;2022-09-17T06:53:15;12.20;99.90
11005;DHT22;5555;59.622;16.556;2022-09-17T06:55:41;12.30;99.90
11005;DHT22;5555;59.622;16.556;2022-09-17T06:58:06;12.20;99.90
11005;DHT22;5555;59.622;16.556;2022-09-17T07:00:32;12.30;99.90
11005;DHT22;5555;59.622;16.556;2022-09-17T07:02:59;12.30;99.90
11005;DHT22;5555;59.622;16.556;2022-09-17T07:05:26;12.40;99.90
11005;DHT22;5555;59.622;16.556;2022-09-17T07:07:52;12.50;99.90
11005;DHT22;5555;59.622;16.556;2022-09-17T07:10:19;12.50;99.90
11005;DHT22;5555;59.622;16.556;2022-09-17T07:12:45;12.50;99.90
11005;DHT22;5555;59.622;16.556;2022-09-17T07:15:12;12.50;99.90
11005;DHT22;5555;59.622;16.556;2022-09-17T07:17:40;12.50;99.90
11005;DHT22;5555;59.622;16.556;2022-09-17T07:20:07;12.60;99.90
11005;DHT22;5555;59.622;16.556;2022-09-17T07:22:33;12.60;99.90
11005;DHT22;5555;59.622;16.556;2022-09-17T07:24:59;12.60;99.90
11005;DHT22;5555;59.622;16.556;2022-09-17T07:27:29;12.60;99.90
11005;DHT22;5555;59.622;16.556;2022-09-17T07:29:56;12.60;99.90
11005;DHT22;5555;59.622;16.556;2022-09-17T07:32:22;12.60;99.90
11005;DHT22;5555;59.622;16.556;2022-09-17T07:34:48;12.60;99.90
11005;DHT22;5555;59.622;16.556;2022-09-17T07:37:15;12.70;99.90
11005;DHT22;5555;59.622;16.556;2022-09-17T07:39:41;12.80;99.90
11005;DHT22;5555;59.622;16.556;2022-09-17T07:42:07;12.80;99.90
11005;DHT22;5555;59.622;16.556;2022-09-17T07:44:33;13.00;99.90
11005;DHT22;5555;59.622;16.556;2022-09-17T07:46:59;13.00;99.90
11005;DHT22;5555;59.622;16.556;2022-09-17T07:49:25;13.10;99.90
11005;DHT22;5555;59.622;16.556;2022-09-17T07:51:51;13.10;99.90
11005;DHT22;5555;59.622;16.556;2022-09-17T07:54:16;13.20;99.90
11005;DHT22;5555;59.622;16.556;2022-09-17T07:56:42;13.30;99.90
11005;DHT22;5555;59.622;16.556;2022-09-17T07:59:09;13.30;99.90
11005;DHT22;5555;59.622;16.556;2022-09-17T08:01:35;13.30;99.90
11005;DHT22;5555;59.622;16.556;2022-09-17T08:04:01;13.20;99.90
11005;DHT22;5555;59.622;16.556;2022-09-17T08:06:28;13.20;99.90
11005;DHT22;5555;59.622;16.556;2022-09-17T08:08:55;13.30;99.90
11005;DHT22;5555;59.622;16.556;2022-09-17T08:11:23;13.50;99.90
11005;DHT22;5555;59.622;16.556;2022-09-17T08:13:50;13.50;99.90
11005;DHT22;5555;59.622;16.556;2022-09-17T08:16:16;13.60;99.90
11005;DHT22;5555;59.622;16.556;2022-09-17T08:18:43;13.70;99.90
11005;DHT22;5555;59.622;16.556;2022-09-17T08:21:11;13.80;99.90
11005;DHT22;5555;59.622;16.556;2022-09-17T08:23:38;13.90;99.90
11005;DHT22;5555;59.622;16.556;2022-09-17T08:26:05;13.90;99.90
11005;DHT22;5555;59.622;16.556;2022-09-17T08:28:35;13.80;99.90
11005;DHT22;5555;59.622;16.556;2022-09-17T08:31:08;14.00;99.90
11005;DHT22;5555;59.622;16.556;2022-09-17T08:33:36;14.10;99.90
11005;DHT22;5555;59.622;16.556;2022-09-17T08:36:02;14.20;99.90
11005;DHT22;5555;59.622;16.556;2022-09-17T08:38:30;14.40;99.90
11005;DHT22;5555;59.622;16.556;2022-09-17T08:46:26;14.10;99.90
11005;DHT22;5555;59.622;16.556;2022-09-17T08:49:05;14.20;99.90
11005;DHT22;5555;59.622;16.556;2022-09-17T08:54:32;14.20;99.90
11005;DHT22;5555;59.622;16.556;2022-09-17T08:59:57;14.20;99.90
11005;DHT22;5555;59.622;16.556;2022-09-17T09:03:06;14.20;99.90
11005;DHT22;5555;59.622;16.556;2022-09-17T09:05:40;14.30;99.90
11005;DHT22;5555;59.622;16.556;2022-09-17T09:08:30;14.50;99.90
11005;DHT22;5555;59.622;16.556;2022-09-17T09:11:01;14.50;99.90
11005;DHT22;5555;59.622;16.556;2022-09-17T09:13:48;14.40;99.90
11005;DHT22;5555;59.622;16.556;2022-09-17T09:16:21;14.70;99.90
11005;DHT22;5555;59.622;16.556;2022-09-17T09:18:53;14.80;99.90
11005;DHT22;5555;59.622;16.556;2022-09-17T09:21:38;14.90;99.90
11005;DHT22;5555;59.622;16.556;2022-09-17T09:24:22;14.90;99.90
11005;DHT22;5555;59.622;16.556;2022-09-17T09:27:06;14.80;99.90
11005;DHT22;5555;59.622;16.556;2022-09-17T09:29:55;14.80;99.90
11005;DHT22;5555;59.622;16.556;2022-09-17T09:35:24;15.00;99.90
11005;DHT22;5555;59.622;16.556;2022-09-17T09:43:35;14.70;99.90
11005;DHT22;5555;59.622;16.556;2022-09-17T09:46:14;14.80;99.90
11005;DHT22;5555;59.622;16.556;2022-09-17T09:57:16;15.20;99.90
11005;DHT22;5555;59.622;16.556;2022-09-17T09:59:42;15.20;99.90
11005;DHT22;5555;59.622;16.556;2022-09-17T10:02:09;15.30;99.90
11005;DHT22;5555;59.622;16.556;2022-09-17T10:04:36;15.20;99.90
11005;DHT22;5555;59.622;16.556;2022-09-17T10:07:09;15.30;99.90
11005;DHT22;5555;59.622;16.556;2022-09-17T10:09:37;15.40;99.90
11005;DHT22;5555;59.622;16.556;2022-09-17T10:14:39;15.50;99.90
11005;DHT22;5555;59.622;16.556;2022-09-17T10:17:24;15.50;99.90
11005;DHT22;5555;59.622;16.556;2022-09-17T10:22:38;15.20;99.90
11005;DHT22;5555;59.622;16.556;2022-09-17T10:25:27;15.10;99.90
11005;DHT22;5555;59.622;16.556;2022-09-17T10:27:51;14.80;99.90
11005;DHT22;5555;59.622;16.556;2022-09-17T10:30:17;14.40;99.90
11005;DHT22;5555;59.622;16.556;2022-09-17T10:32:44;14.00;99.90
11005;DHT22;5555;59.622;16.556;2022-09-17T10:35:30;14.00;99.90
11005;DHT22;5555;59.622;16.556;2022-09-17T10:37:55;13.90;99.90
11005;DHT22;5555;59.622;16.556;2022-09-17T10:40:29;14.10;99.90
11005;DHT22;5555;59.622;16.556;2022-09-17T10:43:27;14.30;99.90
11005;DHT22;5555;59.622;16.556;2022-09-17T10:45:58;14.60;99.90
11005;DHT22;5555;59.622;16.556;2022-09-17T10:48:27;14.70;99.90
11005;DHT22;5555;59.622;16.556;2022-09-17T10:50:55;14.80;99.90
11005;DHT22;5555;59.622;16.556;2022-09-17T10:53:23;15.00;99.90
11005;DHT22;5555;59.622;16.556;2022-09-17T11:02:31;15.30;99.90
11005;DHT22;5555;59.622;16.556;2022-09-17T11:07:41;15.50;99.90
11005;DHT22;5555;59.622;16.556;2022-09-17T11:10:15;16.10;99.90
11005;DHT22;5555;59.622;16.556;2022-09-17T11:12:58;16.70;99.90
11005;DHT22;5555;59.622;16.556;2022-09-17T11:15:32;16.70;99.90
11005;DHT22;5555;59.622;16.556;2022-09-17T11:21:05;15.90;99.90
11005;DHT22;5555;59.622;16.556;2022-09-17T11:37:24;13.70;99.90
11005;DHT22;5555;59.622;16.556;2022-09-17T11:42:44;14.30;99.90
11005;DHT22;5555;59.622;16.556;2022-09-17T11:45:36;14.70;99.90
11005;DHT22;5555;59.622;16.556;2022-09-17T11:48:20;15.20;99.90
11005;DHT22;5555;59.622;16.556;2022-09-17T11:53:49;15.30;99.90
11005;DHT22;5555;59.622;16.556;2022-09-17T11:56:27;15.70;99.90
11005;DHT22;5555;59.622;16.556;2022-09-17T11:59:13;15.80;99.90
11005;DHT22;5555;59.622;16.556;2022-09-17T12:09:58;15.80;99.90
11005;DHT22;5555;59.622;16.556;2022-09-17T12:12:26;15.90;99.90
11005;DHT22;5555;59.622;16.556;2022-09-17T12:14:57;16.00;99.90
11005;DHT22;5555;59.622;16.556;2022-09-17T12:17:30;15.70;99.90
11005;DHT22;5555;59.622;16.556;2022-09-17T12:20:01;15.70;99.90
11005;DHT22;5555;59.622;16.556;2022-09-17T12:22:33;15.90;99.90
11005;DHT22;5555;59.622;16.556;2022-09-17T12:25:00;16.00;99.90
11005;DHT22;5555;59.622;16.556;2022-09-17T12:30:11;15.40;99.90
11005;DHT22;5555;59.622;16.556;2022-09-17T12:43:44;15.20;99.90
11005;DHT22;5555;59.622;16.556;2022-09-17T12:46:25;15.30;99.90
11005;DHT22;5555;59.622;16.556;2022-09-17T12:49:00;15.40;99.90
11005;DHT22;5555;59.622;16.556;2022-09-17T12:59:52;15.30;99.90
11005;DHT22;5555;59.622;16.556;2022-09-17T13:02:26;15.30;99.90
11005;DHT22;5555;59.622;16.556;2022-09-17T13:24:17;15.80;99.90
11005;DHT22;5555;59.622;16.556;2022-09-17T13:26:44;15.90;99.90
11005;DHT22;5555;59.622;16.556;2022-09-17T13:29:11;16.00;99.90
11005;DHT22;5555;59.622;16.556;2022-09-17T13:34:26;16.50;99.90
11005;DHT22;5555;59.622;16.556;2022-09-17T13:36:55;16.90;99.90
11005;DHT22;5555;59.622;16.556;2022-09-17T13:39:50;16.70;99.90
11005;DHT22;5555;59.622;16.556;2022-09-17T13:44:49;16.30;99.90
11005;DHT22;5555;59.622;16.556;2022-09-17T13:47:28;16.30;99.90
11005;DHT22;5555;59.622;16.556;2022-09-17T13:50:04;16.20;99.90
11005;DHT22;5555;59.622;16.556;2022-09-17T13:52:51;16.10;99.90
11005;DHT22;5555;59.622;16.556;2022-09-17T13:55:38;16.20;99.90
11005;DHT22;5555;59.622;16.556;2022-09-17T13:58:07;16.10;99.90
11005;DHT22;5555;59.622;16.556;2022-09-17T14:00:57;16.00;99.90
11005;DHT22;5555;59.622;16.556;2022-09-17T14:21:59;15.80;99.90
11005;DHT22;5555;59.622;16.556;2022-09-17T14:30:13;16.00;99.90
11005;DHT22;5555;59.622;16.556;2022-09-17T14:33:09;16.10;99.90
11005;DHT22;5555;59.622;16.556;2022-09-17T14:35:43;16.20;99.90
11005;DHT22;5555;59.622;16.556;2022-09-17T14:38:29;16.30;99.90
11005;DHT22;5555;59.622;16.556;2022-09-17T14:46:23;17.90;99.90
11005;DHT22;5555;59.622;16.556;2022-09-17T14:48:50;19.30;99.90
11005;DHT22;5555;59.622;16.556;2022-09-17T14:53:42;21.70;99.90
11005;DHT22;5555;59.622;16.556;2022-09-17T14:56:15;22.50;99.90
11005;DHT22;5555;59.622;16.556;2022-09-17T14:58:46;22.30;99.90
11005;DHT22;5555;59.622;16.556;2022-09-17T15:01:31;21.60;99.90
11005;DHT22;5555;59.622;16.556;2022-09-17T15:06:42;19.80;99.90
11005;DHT22;5555;59.622;16.556;2022-09-17T15:09:22;19.60;99.90
11005;DHT22;5555;59.622;16.556;2022-09-17T15:11:57;17.90;99.90
11005;DHT22;5555;59.622;16.556;2022-09-17T15:14:33;17.00;99.90
11005;DHT22;5555;59.622;16.556;2022-09-17T15:17:02;16.60;99.90
11005;DHT22;5555;59.622;16.556;2022-09-17T15:19:34;16.50;99.90
11005;DHT22;5555;59.622;16.556;2022-09-17T15:27:28;17.70;99.90
11005;DHT22;5555;59.622;16.556;2022-09-17T15:30:10;18.60;99.90
11005;DHT22;5555;59.622;16.556;2022-09-17T15:32:42;18.90;99.90
11005;DHT22;5555;59.622;16.556;2022-09-17T15:37:48;19.20;99.90
11005;DHT22;5555;59.622;16.556;2022-09-17T15:40:29;18.70;99.90
11005;DHT22;5555;59.622;16.556;2022-09-17T15:45:48;17.00;99.90
11005;DHT22;5555;59.622;16.556;2022-09-17T15:48:37;18.30;99.90
11005;DHT22;5555;59.622;16.556;2022-09-17T15:51:05;20.20;99.90
11005;DHT22;5555;59.622;16.556;2022-09-17T15:53:50;19.10;99.90
11005;DHT22;5555;59.622;16.556;2022-09-17T15:56:18;17.90;99.90
11005;DHT22;5555;59.622;16.556;2022-09-17T16:04:06;16.50;99.90
11005;DHT22;5555;59.622;16.556;2022-09-17T16:08:59;16.20;99.90
11005;DHT22;5555;59.622;16.556;2022-09-17T16:11:29;16.10;99.90
11005;DHT22;5555;59.622;16.556;2022-09-17T16:13:57;15.90;99.90
11005;DHT22;5555;59.622;16.556;2022-09-17T16:16:29;15.70;99.90
11005;DHT22;5555;59.622;16.556;2022-09-17T16:18:56;15.60;99.90
11005;DHT22;5555;59.622;16.556;2022-09-17T16:21:22;15.70;99.90
11005;DHT22;5555;59.622;16.556;2022-09-17T16:23:47;16.00;99.90
11005;DHT22;5555;59.622;16.556;2022-09-17T16:26:16;16.70;99.90
11005;DHT22;5555;59.622;16.556;2022-09-17T16:28:44;16.50;99.90
11005;DHT22;5555;59.622;16.556;2022-09-17T16:31:13;16.20;99.90
11005;DHT22;5555;59.622;16.556;2022-09-17T16:33:39;15.50;99.90
11005;DHT22;5555;59.622;16.556;2022-09-17T16:36:05;14.70;99.90
11005;DHT22;5555;59.622;16.556;2022-09-17T16:38:31;13.90;99.90
11005;DHT22;5555;59.622;16.556;2022-09-17T16:40:57;13.60;99.90
11005;DHT22;5555;59.622;16.556;2022-09-17T16:43:23;13.40;99.90
11005;DHT22;5555;59.622;16.556;2022-09-17T16:48:24;13.20;99.90
11005;DHT22;5555;59.622;16.556;2022-09-17T16:50:50;13.20;99.90
11005;DHT22;5555;59.622;16.556;2022-09-17T16:53:16;13.20;99.90
11005;DHT22;5555;59.622;16.556;2022-09-17T16:55:41;13.10;99.90
11005;DHT22;5555;59.622;16.556;2022-09-17T16:58:07;13.10;99.90
11005;DHT22;5555;59.622;16.556;2022-09-17T17:00:33;13.00;99.90
11005;DHT22;5555;59.622;16.556;2022-09-17T17:02:59;13.00;99.90
11005;DHT22;5555;59.622;16.556;2022-09-17T17:05:25;13.00;99.90
11005;DHT22;5555;59.622;16.556;2022-09-17T17:07:52;13.00;99.90
11005;DHT22;5555;59.622;16.556;2022-09-17T17:10:20;12.90;99.90
11005;DHT22;5555;59.622;16.556;2022-09-17T17:12:45;12.90;99.90
11005;DHT22;5555;59.622;16.556;2022-09-17T17:15:11;12.90;99.90
11005;DHT22;5555;59.622;16.556;2022-09-17T17:17:37;12.90;99.90
11005;DHT22;5555;59.622;16.556;2022-09-17T17:20:04;12.90;99.90
11005;DHT22;5555;59.622;16.556;2022-09-17T17:22:33;12.90;99.90
11005;DHT22;5555;59.622;16.556;2022-09-17T17:24:59;13.00;99.90
11005;DHT22;5555;59.622;16.556;2022-09-17T17:27:24;13.00;99.90
11005;DHT22;5555;59.622;16.556;2022-09-17T17:29:50;13.00;99.90
11005;DHT22;5555;59.622;16.556;2022-09-17T17:32:17;13.00;99.90
11005;DHT22;5555;59.622;16.556;2022-09-17T17:34:42;12.90;99.90
11005;DHT22;5555;59.622;16.556;2022-09-17T17:37:08;12.90;99.90
11005;DHT22;5555;59.622;16.556;2022-09-17T17:39:34;12.90;99.90
11005;DHT22;5555;59.622;16.556;2022-09-17T17:41:59;12.90;99.90
11005;DHT22;5555;59.622;16.556;2022-09-17T17:44:25;12.90;99.90
11005;DHT22;5555;59.622;16.556;2022-09-17T17:46:51;12.80;99.90
11005;DHT22;5555;59.622;16.556;2022-09-17T17:49:16;12.80;99.90
11005;DHT22;5555;59.622;16.556;2022-09-17T17:51:42;12.70;99.90
11005;DHT22;5555;59.622;16.556;2022-09-17T17:54:08;12.60;99.90
11005;DHT22;5555;59.622;16.556;2022-09-17T17:56:33;12.50;99.90
11005;DHT22;5555;59.622;16.556;2022-09-17T17:58:59;12.50;99.90
11005;DHT22;5555;59.622;16.556;2022-09-17T18:01:27;12.40;99.90
11005;DHT22;5555;59.622;16.556;2022-09-17T18:03:57;12.30;99.90
11005;DHT22;5555;59.622;16.556;2022-09-17T18:06:23;12.30;99.90
11005;DHT22;5555;59.622;16.556;2022-09-17T18:08:49;12.20;99.90
11005;DHT22;5555;59.622;16.556;2022-09-17T18:11:14;12.20;99.90
11005;DHT22;5555;59.622;16.556;2022-09-17T18:13:40;12.10;99.90
11005;DHT22;5555;59.622;16.556;2022-09-17T18:16:09;12.10;99.90
11005;DHT22;5555;59.622;16.556;2022-09-17T18:18:40;12.10;99.90
11005;DHT22;5555;59.622;16.556;2022-09-17T18:21:07;12.10;99.90
11005;DHT22;5555;59.622;16.556;2022-09-17T18:23:35;12.10;99.90
11005;DHT22;5555;59.622;16.556;2022-09-17T18:26:02;12.00;99.90
11005;DHT22;5555;59.622;16.556;2022-09-17T18:28:28;11.90;99.90
11005;DHT22;5555;59.622;16.556;2022-09-17T18:30:55;11.90;99.90
11005;DHT22;5555;59.622;16.556;2022-09-17T18:33:25;11.90;99.90
11005;DHT22;5555;59.622;16.556;2022-09-17T18:35:52;11.80;99.90
11005;DHT22;5555;59.622;16.556;2022-09-17T18:38:22;11.80;99.90
11005;DHT22;5555;59.622;16.556;2022-09-17T18:40:48;11.70;99.90
11005;DHT22;5555;59.622;16.556;2022-09-17T18:43:14;11.60;99.90
11005;DHT22;5555;59.622;16.556;2022-09-17T18:45:39;11.60;99.90
11005;DHT22;5555;59.622;16.556;2022-09-17T18:48:06;11.50;99.90
11005;DHT22;5555;59.622;16.556;2022-09-17T18:50:32;11.50;99.90
11005;DHT22;5555;59.622;16.556;2022-09-17T18:52:57;11.50;99.90
11005;DHT22;5555;59.622;16.556;2022-09-17T18:55:23;11.50;99.90
11005;DHT22;5555;59.622;16.556;2022-09-17T18:57:50;11.50;99.90
11005;DHT22;5555;59.622;16.556;2022-09-17T19:00:20;11.50;99.90
11005;DHT22;5555;59.622;16.556;2022-09-17T19:02:49;11.60;99.90
11005;DHT22;5555;59.622;16.556;2022-09-17T19:05:16;11.60;99.90
11005;DHT22;5555;59.622;16.556;2022-09-17T19:07:45;11.60;99.90
11005;DHT22;5555;59.622;16.556;2022-09-17T19:10:11;11.60;99.90
11005;DHT22;5555;59.622;16.556;2022-09-17T19:12:37;11.60;99.90
11005;DHT22;5555;59.622;16.556;2022-09-17T19:15:04;11.60;99.90
11005;DHT22;5555;59.622;16.556;2022-09-17T19:17:29;11.60;99.90
11005;DHT22;5555;59.622;16.556;2022-09-17T19:19:55;11.70;99.90
11005;DHT22;5555;59.622;16.556;2022-09-17T19:22:22;11.70;99.90
11005;DHT22;5555;59.622;16.556;2022-09-17T19:24:48;11.70;99.90
11005;DHT22;5555;59.622;16.556;2022-09-17T19:27:13;11.70;99.90
11005;DHT22;5555;59.622;16.556;2022-09-17T19:29:39;11.70;99.90
11005;DHT22;5555;59.622;16.556;2022-09-17T19:32:05;11.60;99.90
11005;DHT22;5555;59.622;16.556;2022-09-17T19:34:30;11.60;99.90
11005;DHT22;5555;59.622;16.556;2022-09-17T19:36:56;11.60;99.90